createdAt,value
2019-03-24T00:00:11.003Z,8.84
2019-03-24T00:01:10.995Z,8.82
2019-03-24T00:02:11.017Z,8.82
2019-03-24T00:03:11.033Z,8.81
2019-03-24T00:04:10.974Z,8.85
2019-03-24T00:05:10.969Z,8.74
2019-03-24T00:06:10.960Z,8.78
2019-03-24T00:07:10.952Z,8.71
2019-03-24T00:08:10.946Z,8.74
2019-03-24T00:09:10.937Z,8.71
2019-03-24T00:10:10.931Z,8.71
2019-03-24T00:11:10.926Z,8.73
2019-03-24T00:12:10.917Z,8.67
2019-03-24T00:13:10.917Z,8.73
2019-03-24T00:14:10.905Z,8.69
2019-03-24T00:15:10.894Z,8.70
2019-03-24T00:16:10.890Z,8.70
2019-03-24T00:17:10.878Z,8.69
2019-03-24T00:18:10.893Z,8.67
2019-03-24T00:19:10.868Z,8.61
2019-03-24T00:20:10.859Z,8.63
2019-03-24T00:21:10.860Z,8.61
2019-03-24T00:22:10.845Z,8.64
2019-03-24T00:23:10.843Z,8.53
2019-03-24T00:24:10.832Z,8.53
2019-03-24T00:25:10.945Z,8.55
2019-03-24T00:26:10.817Z,8.58
2019-03-24T00:27:10.810Z,8.58
2019-03-24T00:28:10.799Z,8.53
2019-03-24T00:29:10.798Z,8.56
2019-03-24T00:30:10.788Z,8.48
2019-03-24T00:31:10.782Z,8.56
2019-03-24T00:32:10.775Z,8.53
2019-03-24T00:33:10.810Z,8.45
2019-03-24T00:34:10.789Z,8.48
2019-03-24T00:35:10.754Z,8.48
2019-03-24T00:36:10.786Z,8.38
2019-03-24T00:37:10.738Z,8.33
2019-03-24T00:38:10.731Z,8.41
2019-03-24T00:39:10.725Z,8.30
2019-03-24T00:40:10.717Z,8.33
2019-03-24T00:41:10.709Z,8.30
2019-03-24T00:42:10.704Z,8.33
2019-03-24T00:43:10.695Z,8.26
2019-03-24T00:44:10.686Z,8.24
2019-03-24T00:45:10.680Z,8.13
2019-03-24T00:46:10.677Z,8.10
2019-03-24T00:47:10.671Z,8.18
2019-03-24T00:48:10.658Z,8.13
2019-03-24T00:49:10.655Z,8.09
2019-03-24T00:50:10.644Z,8.13
2019-03-24T00:51:10.638Z,8.10
2019-03-24T00:52:10.630Z,8.01
2019-03-24T00:53:10.621Z,7.98
2019-03-24T00:54:10.613Z,8.00
2019-03-24T00:55:10.607Z,7.90
2019-03-24T00:56:10.597Z,7.91
2019-03-24T00:57:10.591Z,7.87
2019-03-24T00:58:10.584Z,7.85
2019-03-24T00:59:10.577Z,7.80
2019-03-24T01:00:10.598Z,7.79
2019-03-24T01:01:10.565Z,7.75
2019-03-24T01:02:10.555Z,7.70
2019-03-24T01:03:10.547Z,7.69
2019-03-24T01:04:10.540Z,7.72
2019-03-24T01:05:10.533Z,7.63
2019-03-24T01:06:10.525Z,7.56
2019-03-24T01:07:10.519Z,7.66
2019-03-24T01:08:10.510Z,7.60
2019-03-24T01:09:10.504Z,7.63
2019-03-24T01:10:10.497Z,7.54
2019-03-24T01:11:10.488Z,7.50
2019-03-24T01:12:10.479Z,7.57
2019-03-24T01:13:10.473Z,7.42
2019-03-24T01:14:10.465Z,7.47
2019-03-24T01:15:10.457Z,7.47
2019-03-24T01:16:10.450Z,7.32
2019-03-24T01:17:10.441Z,7.42
2019-03-24T01:18:10.436Z,7.35
2019-03-24T01:19:10.428Z,7.31
2019-03-24T01:20:10.423Z,7.28
2019-03-24T01:21:10.410Z,7.29
2019-03-24T01:22:10.404Z,7.24
2019-03-24T01:23:10.395Z,7.21
2019-03-24T01:24:10.388Z,7.20
2019-03-24T01:25:10.379Z,7.21
2019-03-24T01:26:10.373Z,7.23
2019-03-24T01:27:10.367Z,7.20
2019-03-24T01:28:10.355Z,7.13
2019-03-24T01:29:10.354Z,7.06
2019-03-24T01:30:10.346Z,7.03
2019-03-24T01:31:10.332Z,6.93
2019-03-24T01:32:10.323Z,6.93
2019-03-24T01:33:10.322Z,6.96
2019-03-24T01:34:10.314Z,6.89
2019-03-24T01:35:10.303Z,6.93
2019-03-24T01:36:10.291Z,6.79
2019-03-24T01:37:10.285Z,6.88
2019-03-24T01:38:10.282Z,6.88
2019-03-24T01:39:10.279Z,6.84
2019-03-24T01:40:10.263Z,6.84
2019-03-24T01:41:10.254Z,6.77
2019-03-24T01:42:10.246Z,6.75
2019-03-24T01:43:10.239Z,6.84
2019-03-24T01:44:10.231Z,6.77
2019-03-24T01:45:10.223Z,6.78
2019-03-24T01:46:10.213Z,6.78
2019-03-24T01:47:10.207Z,6.69
2019-03-24T01:48:10.198Z,6.69
2019-03-24T01:49:10.932Z,6.66
2019-03-24T01:50:10.183Z,6.75
2019-03-24T01:51:10.176Z,6.72
2019-03-24T01:52:10.168Z,6.70
2019-03-24T01:53:10.160Z,6.62
2019-03-24T01:54:10.148Z,6.67
2019-03-24T01:55:10.142Z,6.72
2019-03-24T01:56:10.135Z,6.70
2019-03-24T01:57:10.126Z,6.62
2019-03-24T01:58:10.119Z,6.59
2019-03-24T01:59:10.108Z,6.63
2019-03-24T02:00:10.101Z,6.59
2019-03-24T02:01:10.097Z,6.67
2019-03-24T02:02:10.085Z,6.54
2019-03-24T02:03:10.090Z,6.60
2019-03-24T02:04:10.071Z,6.49
2019-03-24T02:05:10.065Z,6.52
2019-03-24T02:06:10.053Z,6.49
2019-03-24T02:07:10.048Z,6.46
2019-03-24T02:08:10.038Z,6.56
2019-03-24T02:09:10.033Z,6.52
2019-03-24T02:10:10.020Z,6.46
2019-03-24T02:11:10.015Z,6.48
2019-03-24T02:12:10.005Z,6.44
2019-03-24T02:13:10.045Z,6.36
2019-03-24T02:14:10.053Z,6.31
2019-03-24T02:15:10.056Z,6.42
2019-03-24T02:16:09.974Z,6.33
2019-03-24T02:17:09.965Z,6.31
2019-03-24T02:18:09.957Z,6.33
2019-03-24T02:19:09.950Z,6.33
2019-03-24T02:20:09.939Z,6.30
2019-03-24T02:21:09.935Z,6.26
2019-03-24T02:22:09.928Z,6.28
2019-03-24T02:23:09.918Z,6.22
2019-03-24T02:24:09.907Z,6.30
2019-03-24T02:25:09.900Z,6.24
2019-03-24T02:26:09.892Z,6.22
2019-03-24T02:27:09.884Z,6.27
2019-03-24T02:28:09.878Z,6.11
2019-03-24T02:29:09.871Z,6.09
2019-03-24T02:30:09.879Z,6.12
2019-03-24T02:31:09.857Z,6.05
2019-03-24T02:32:09.843Z,6.07
2019-03-24T02:33:09.838Z,6.01
2019-03-24T02:34:09.830Z,6.16
2019-03-24T02:35:09.818Z,5.93
2019-03-24T02:36:09.812Z,6.08
2019-03-24T02:37:09.799Z,5.99
2019-03-24T02:38:09.795Z,6.02
2019-03-24T02:39:09.793Z,6.01
2019-03-24T02:40:09.777Z,6.02
2019-03-24T02:41:09.771Z,5.94
2019-03-24T02:42:09.761Z,5.91
2019-03-24T02:43:09.771Z,5.84
2019-03-24T02:44:09.745Z,5.86
2019-03-24T02:45:09.741Z,5.84
2019-03-24T02:46:23.167Z,5.86
2019-03-24T02:47:09.745Z,5.73
2019-03-24T02:48:09.711Z,5.71
2019-03-24T02:49:09.704Z,5.64
2019-03-24T02:50:09.694Z,5.69
2019-03-24T02:51:09.688Z,5.64
2019-03-24T02:52:09.677Z,5.57
2019-03-24T02:53:09.673Z,5.51
2019-03-24T02:54:09.661Z,5.50
2019-03-24T02:55:09.654Z,5.48
2019-03-24T02:56:09.645Z,5.46
2019-03-24T02:57:09.635Z,5.32
2019-03-24T02:58:09.629Z,5.46
2019-03-24T02:59:09.619Z,5.33
2019-03-24T03:00:09.614Z,5.38
2019-03-24T03:01:09.604Z,5.28
2019-03-24T03:02:09.605Z,5.25
2019-03-24T03:03:09.586Z,5.25
2019-03-24T03:04:09.576Z,5.28
2019-03-24T03:05:09.575Z,5.21
2019-03-24T03:06:09.561Z,5.15
2019-03-24T03:07:09.616Z,5.08
2019-03-24T03:08:09.544Z,5.08
2019-03-24T03:09:09.538Z,5.11
2019-03-24T03:10:09.530Z,4.97
2019-03-24T03:11:09.525Z,5.00
2019-03-24T03:12:09.515Z,5.02
2019-03-24T03:13:09.502Z,4.89
2019-03-24T03:14:09.499Z,4.86
2019-03-24T03:15:09.485Z,4.89
2019-03-24T03:16:09.478Z,4.87
2019-03-24T03:17:09.476Z,4.82
2019-03-24T03:18:09.461Z,4.86
2019-03-24T03:19:09.455Z,4.84
2019-03-24T03:20:09.445Z,4.87
2019-03-24T03:21:09.438Z,4.86
2019-03-24T03:22:09.428Z,4.82
2019-03-24T03:23:09.419Z,4.77
2019-03-24T03:24:09.416Z,4.74
2019-03-24T03:25:09.409Z,4.86
2019-03-24T03:26:09.397Z,4.75
2019-03-24T03:27:09.390Z,4.78
2019-03-24T03:28:09.378Z,4.77
2019-03-24T03:29:09.369Z,4.74
2019-03-24T03:30:09.366Z,4.67
2019-03-24T03:31:09.350Z,4.75
2019-03-24T03:32:09.348Z,4.62
2019-03-24T03:33:09.351Z,4.67
2019-03-24T03:34:09.327Z,4.66
2019-03-24T03:35:09.325Z,4.67
2019-03-24T03:36:09.314Z,4.67
2019-03-24T03:37:09.308Z,4.58
2019-03-24T03:38:09.296Z,4.59
2019-03-24T03:39:09.412Z,4.60
2019-03-24T03:40:09.273Z,4.63
2019-03-24T03:41:09.265Z,4.60
2019-03-24T03:42:09.259Z,4.52
2019-03-24T03:43:09.255Z,4.53
2019-03-24T03:44:09.242Z,4.44
2019-03-24T03:45:09.233Z,4.48
2019-03-24T03:46:09.225Z,4.53
2019-03-24T03:47:09.215Z,4.41
2019-03-24T03:48:09.207Z,4.41
2019-03-24T03:49:09.202Z,4.42
2019-03-24T03:50:09.206Z,4.38
2019-03-24T03:51:09.185Z,4.38
2019-03-24T03:52:09.173Z,4.42
2019-03-24T03:53:09.165Z,4.35
2019-03-24T03:54:09.184Z,4.38
2019-03-24T03:55:09.149Z,4.31
2019-03-24T03:56:09.146Z,4.28
2019-03-24T03:57:09.129Z,4.19
2019-03-24T03:58:09.121Z,4.31
2019-03-24T03:59:09.119Z,4.30
2019-03-24T04:00:09.107Z,4.32
2019-03-24T04:01:09.094Z,4.26
2019-03-24T04:02:09.084Z,4.16
2019-03-24T04:03:09.083Z,4.23
2019-03-24T04:04:09.067Z,4.23
2019-03-24T04:05:09.059Z,4.13
2019-03-24T04:06:09.052Z,4.13
2019-03-24T04:07:09.044Z,4.14
2019-03-24T04:08:09.031Z,4.06
2019-03-24T04:09:09.023Z,4.02
2019-03-24T04:10:09.013Z,3.99
2019-03-24T04:11:09.005Z,3.95
2019-03-24T04:12:08.996Z,3.91
2019-03-24T04:13:08.989Z,3.91
2019-03-24T04:14:08.981Z,3.92
2019-03-24T04:15:08.971Z,3.88
2019-03-24T04:16:08.963Z,3.96
2019-03-24T04:17:08.954Z,3.91
2019-03-24T04:18:08.940Z,3.95
2019-03-24T04:19:08.933Z,3.81
2019-03-24T04:20:08.927Z,3.94
2019-03-24T04:21:08.918Z,3.84
2019-03-24T04:22:08.908Z,3.94
2019-03-24T04:23:08.898Z,3.94
2019-03-24T04:24:08.889Z,3.83
2019-03-24T04:25:08.884Z,3.84
2019-03-24T04:26:08.871Z,3.78
2019-03-24T04:27:08.925Z,3.74
2019-03-24T04:28:08.853Z,3.87
2019-03-24T04:29:08.841Z,3.78
2019-03-24T04:30:08.860Z,3.74
2019-03-24T04:31:08.827Z,3.73
2019-03-24T04:32:08.819Z,3.77
2019-03-24T04:33:08.809Z,3.73
2019-03-24T04:34:08.798Z,3.68
2019-03-24T04:35:08.792Z,3.65
2019-03-24T04:36:08.779Z,3.74
2019-03-24T04:37:08.771Z,3.76
2019-03-24T04:38:08.760Z,3.65
2019-03-24T04:39:08.752Z,3.68
2019-03-24T04:40:08.742Z,3.65
2019-03-24T04:41:08.734Z,3.70
2019-03-24T04:42:08.725Z,3.68
2019-03-24T04:43:08.720Z,3.74
2019-03-24T04:44:08.704Z,3.66
2019-03-24T04:45:08.699Z,3.58
2019-03-24T04:46:08.689Z,3.58
2019-03-24T04:47:16.340Z,3.53
2019-03-24T04:48:08.669Z,3.60
2019-03-24T04:49:08.662Z,3.55
2019-03-24T04:50:08.659Z,3.58
2019-03-24T04:51:08.643Z,3.58
2019-03-24T04:52:08.633Z,3.62
2019-03-24T04:53:08.627Z,3.53
2019-03-24T04:54:08.615Z,3.53
2019-03-24T04:55:08.605Z,3.48
2019-03-24T04:56:08.598Z,3.51
2019-03-24T04:57:08.586Z,3.51
2019-03-24T04:58:08.577Z,3.44
2019-03-24T04:59:08.568Z,3.41
2019-03-24T05:00:08.560Z,3.48
2019-03-24T05:01:08.554Z,3.47
2019-03-24T05:02:08.540Z,3.51
2019-03-24T05:03:08.530Z,3.53
2019-03-24T05:04:08.525Z,3.41
2019-03-24T05:05:08.522Z,3.42
2019-03-24T05:06:08.506Z,3.44
2019-03-24T05:07:08.498Z,3.48
2019-03-24T05:08:08.489Z,3.45
2019-03-24T05:09:08.477Z,3.42
2019-03-24T05:10:08.474Z,3.41
2019-03-24T05:11:08.462Z,3.34
2019-03-24T05:12:08.447Z,3.28
2019-03-24T05:13:08.484Z,3.32
2019-03-24T05:14:08.430Z,3.28
2019-03-24T05:15:08.422Z,3.36
2019-03-24T05:16:08.410Z,3.29
2019-03-24T05:17:08.400Z,3.32
2019-03-24T05:18:08.392Z,3.37
2019-03-24T05:19:08.382Z,3.34
2019-03-24T05:20:08.372Z,3.40
2019-03-24T05:21:08.362Z,3.40
2019-03-24T05:22:08.354Z,3.37
2019-03-24T05:23:08.357Z,3.42
2019-03-24T05:24:08.335Z,3.47
2019-03-24T05:25:08.324Z,3.41
2019-03-24T05:26:08.318Z,3.41
2019-03-24T05:27:08.306Z,3.47
2019-03-24T05:28:08.298Z,3.53
2019-03-24T05:29:08.289Z,3.44
2019-03-24T05:30:08.279Z,3.53
2019-03-24T05:31:08.267Z,3.55
2019-03-24T05:32:08.259Z,3.58
2019-03-24T05:33:08.253Z,3.69
2019-03-24T05:34:08.241Z,3.77
2019-03-24T05:35:08.233Z,3.70
2019-03-24T05:36:08.224Z,3.69
2019-03-24T05:37:08.212Z,3.74
2019-03-24T05:38:08.203Z,3.83
2019-03-24T05:39:08.196Z,3.87
2019-03-24T05:40:08.184Z,3.84
2019-03-24T05:41:08.178Z,3.95
2019-03-24T05:42:08.166Z,4.02
2019-03-24T05:43:08.160Z,4.06
2019-03-24T05:44:08.166Z,4.12
2019-03-24T05:45:08.180Z,4.17
2019-03-24T05:46:08.174Z,4.23
2019-03-24T05:47:08.188Z,4.38
2019-03-24T05:48:08.144Z,4.44
2019-03-24T05:49:08.105Z,4.52
2019-03-24T05:50:08.095Z,4.63
2019-03-24T05:51:08.087Z,4.73
2019-03-24T05:52:08.075Z,5.20
2019-03-24T05:53:08.069Z,5.73
2019-03-24T05:54:08.059Z,6.75
2019-03-24T05:55:08.047Z,7.23
2019-03-24T05:56:08.040Z,7.82
2019-03-24T05:57:08.032Z,8.26
2019-03-24T05:58:08.023Z,8.52
2019-03-24T05:59:08.014Z,8.56
2019-03-24T06:00:08.006Z,8.24
2019-03-24T06:01:07.998Z,8.55
2019-03-24T06:02:07.991Z,8.85
2019-03-24T06:03:07.984Z,8.76
2019-03-24T06:04:07.977Z,8.95
2019-03-24T06:05:07.968Z,9.22
2019-03-24T06:06:07.957Z,9.14
2019-03-24T06:07:07.949Z,8.95
2019-03-24T06:08:07.944Z,8.91
2019-03-24T06:09:07.936Z,8.76
2019-03-24T06:10:07.930Z,8.34
2019-03-24T06:11:07.919Z,8.28
2019-03-24T06:12:07.910Z,8.23
2019-03-24T06:13:07.905Z,8.16
2019-03-24T06:14:07.900Z,7.98
2019-03-24T06:15:07.890Z,7.94
2019-03-24T06:16:07.882Z,8.01
2019-03-24T06:17:07.872Z,8.42
2019-03-24T06:18:07.864Z,8.76
2019-03-24T06:19:07.860Z,8.87
2019-03-24T06:20:07.851Z,8.85
2019-03-24T06:21:07.842Z,8.78
2019-03-24T06:22:07.836Z,8.63
2019-03-24T06:23:07.828Z,8.34
2019-03-24T06:24:07.820Z,8.30
2019-03-24T06:25:07.817Z,8.18
2019-03-24T06:26:07.807Z,8.13
2019-03-24T06:27:07.797Z,8.12
2019-03-24T06:28:07.792Z,8.12
2019-03-24T06:29:07.784Z,8.16
2019-03-24T06:30:07.777Z,8.10
2019-03-24T06:31:07.773Z,8.20
2019-03-24T06:32:07.766Z,8.12
2019-03-24T06:33:07.753Z,8.12
2019-03-24T06:34:07.753Z,8.15
2019-03-24T06:35:07.740Z,8.34
2019-03-24T06:36:07.732Z,8.81
2019-03-24T06:37:07.732Z,9.23
2019-03-24T06:38:07.717Z,9.76
2019-03-24T06:39:07.716Z,8.94
2019-03-24T06:40:07.704Z,8.76
2019-03-24T06:41:07.697Z,8.51
2019-03-24T06:42:07.696Z,8.56
2019-03-24T06:43:07.682Z,8.41
2019-03-24T06:44:07.681Z,8.26
2019-03-24T06:45:07.669Z,8.45
2019-03-24T06:46:07.663Z,8.49
2019-03-24T06:47:07.656Z,8.48
2019-03-24T06:48:07.645Z,7.70
2019-03-24T06:49:07.639Z,7.67
2019-03-24T06:50:07.642Z,7.70
2019-03-24T06:51:07.633Z,7.83
2019-03-24T06:52:07.620Z,7.88
2019-03-24T06:53:07.614Z,7.90
2019-03-24T06:54:07.606Z,7.98
2019-03-24T06:55:07.598Z,8.00
2019-03-24T06:56:07.590Z,8.26
2019-03-24T06:57:07.583Z,8.15
2019-03-24T06:58:07.576Z,8.33
2019-03-24T06:59:07.569Z,8.38
2019-03-24T07:00:07.563Z,8.28
2019-03-24T07:01:07.556Z,8.16
2019-03-24T07:02:07.552Z,8.28
2019-03-24T07:03:07.542Z,8.13
2019-03-24T07:04:07.535Z,8.34
2019-03-24T07:05:07.529Z,8.45
2019-03-24T07:06:07.524Z,8.46
2019-03-24T07:07:07.517Z,8.45
2019-03-24T07:08:07.505Z,8.27
2019-03-24T07:09:07.498Z,8.15
2019-03-24T07:10:07.490Z,8.20
2019-03-24T07:11:13.383Z,8.31
2019-03-24T07:12:07.480Z,8.48
2019-03-24T07:13:07.470Z,8.64
2019-03-24T07:14:07.463Z,8.99
2019-03-24T07:15:07.461Z,9.03
2019-03-24T07:16:07.455Z,8.63
2019-03-24T07:17:07.444Z,8.63
2019-03-24T07:18:08.748Z,8.51
2019-03-24T07:19:07.430Z,8.42
2019-03-24T07:20:07.422Z,8.45
2019-03-24T07:21:07.422Z,8.44
2019-03-24T07:22:07.429Z,8.38
2019-03-24T07:23:07.403Z,8.63
2019-03-24T07:24:07.397Z,8.56
2019-03-24T07:25:07.393Z,8.63
2019-03-24T07:26:07.383Z,8.78
2019-03-24T07:27:07.376Z,8.78
2019-03-24T07:28:07.372Z,8.66
2019-03-24T07:29:07.363Z,8.74
2019-03-24T07:30:07.355Z,8.79
2019-03-24T07:31:07.349Z,8.78
2019-03-24T07:32:07.343Z,8.58
2019-03-24T07:33:07.335Z,8.33
2019-03-24T07:34:07.368Z,8.41
2019-03-24T07:35:07.341Z,8.56
2019-03-24T07:36:07.314Z,8.55
2019-03-24T07:37:07.305Z,8.81
2019-03-24T07:38:07.300Z,8.88
2019-03-24T07:39:07.293Z,8.53
2019-03-24T07:40:07.285Z,8.53
2019-03-24T07:41:07.283Z,8.69
2019-03-24T07:42:07.282Z,8.82
2019-03-24T07:43:07.265Z,8.97
2019-03-24T07:44:07.257Z,9.13
2019-03-24T07:45:07.253Z,9.14
2019-03-24T07:46:07.249Z,9.23
2019-03-24T07:47:07.238Z,9.10
2019-03-24T07:48:07.231Z,8.84
2019-03-24T07:49:07.225Z,9.02
2019-03-24T07:50:07.221Z,8.82
2019-03-24T07:51:07.209Z,8.63
2019-03-24T07:52:07.204Z,8.76
2019-03-24T07:53:07.201Z,8.71
2019-03-24T07:54:07.194Z,8.28
2019-03-24T07:55:07.187Z,8.01
2019-03-24T07:56:07.178Z,8.19
2019-03-24T07:57:07.173Z,8.42
2019-03-24T07:58:07.164Z,8.66
2019-03-24T07:59:07.159Z,8.84
2019-03-24T08:00:07.151Z,9.13
2019-03-24T08:01:07.148Z,8.97
2019-03-24T08:02:07.140Z,9.19
2019-03-24T08:03:07.131Z,8.94
2019-03-24T08:04:07.123Z,8.78
2019-03-24T08:05:07.121Z,8.48
2019-03-24T08:06:07.113Z,8.76
2019-03-24T08:07:07.104Z,8.87
2019-03-24T08:08:07.095Z,8.84
2019-03-24T08:09:07.088Z,8.99
2019-03-24T08:10:07.086Z,9.10
2019-03-24T08:11:07.078Z,9.21
2019-03-24T08:12:07.070Z,9.10
2019-03-24T08:13:07.064Z,8.91
2019-03-24T08:14:07.059Z,8.79
2019-03-24T08:15:07.050Z,8.64
2019-03-24T08:16:07.042Z,8.41
2019-03-24T08:17:07.036Z,8.16
2019-03-24T08:18:07.028Z,8.38
2019-03-24T08:19:07.023Z,8.70
2019-03-24T08:20:07.014Z,8.84
2019-03-24T08:21:07.012Z,8.97
2019-03-24T08:22:07.001Z,9.06
2019-03-24T08:23:06.995Z,9.21
2019-03-24T08:24:06.992Z,9.29
2019-03-24T08:25:06.985Z,9.26
2019-03-24T08:26:06.974Z,9.43
2019-03-24T08:27:06.966Z,9.22
2019-03-24T08:28:06.963Z,8.87
2019-03-24T08:29:06.956Z,8.64
2019-03-24T08:30:06.954Z,8.51
2019-03-24T08:31:06.942Z,8.44
2019-03-24T08:32:06.935Z,8.46
2019-03-24T08:33:06.926Z,8.51
2019-03-24T08:34:06.922Z,8.61
2019-03-24T08:35:06.916Z,8.82
2019-03-24T08:36:06.908Z,8.76
2019-03-24T08:37:06.903Z,8.67
2019-03-24T08:38:06.898Z,8.51
2019-03-24T08:39:06.889Z,8.44
2019-03-24T08:40:06.886Z,8.58
2019-03-24T08:41:06.872Z,8.52
2019-03-24T08:42:06.868Z,8.58
2019-03-24T08:43:06.858Z,8.51
2019-03-24T08:44:06.855Z,8.78
2019-03-24T08:45:06.846Z,8.87
2019-03-24T08:46:06.839Z,9.08
2019-03-24T08:47:06.830Z,9.18
2019-03-24T08:48:06.824Z,9.25
2019-03-24T08:49:06.822Z,9.28
2019-03-24T08:50:06.812Z,9.28
2019-03-24T08:51:06.807Z,9.26
2019-03-24T08:52:06.800Z,9.29
2019-03-24T08:53:06.789Z,9.32
2019-03-24T08:54:06.784Z,9.44
2019-03-24T08:55:06.778Z,9.37
2019-03-24T08:56:06.768Z,9.29
2019-03-24T08:57:06.764Z,9.39
2019-03-24T08:58:06.759Z,9.41
2019-03-24T08:59:06.802Z,9.55
2019-03-24T09:00:06.744Z,9.48
2019-03-24T09:01:06.736Z,9.55
2019-03-24T09:02:06.729Z,9.51
2019-03-24T09:03:06.725Z,9.56
2019-03-24T09:04:06.715Z,9.41
2019-03-24T09:05:06.711Z,9.39
2019-03-24T09:06:06.702Z,9.44
2019-03-24T09:07:06.689Z,9.47
2019-03-24T09:08:06.689Z,9.32
2019-03-24T09:09:06.683Z,9.36
2019-03-24T09:10:06.675Z,9.14
2019-03-24T09:11:06.669Z,9.26
2019-03-24T09:12:06.660Z,9.29
2019-03-24T09:13:06.657Z,9.14
2019-03-24T09:14:06.649Z,9.16
2019-03-24T09:15:06.643Z,9.10
2019-03-24T09:16:06.637Z,9.11
2019-03-24T09:17:06.637Z,9.02
2019-03-24T09:18:06.624Z,9.18
2019-03-24T09:19:06.635Z,9.25
2019-03-24T09:20:06.603Z,9.32
2019-03-24T09:21:06.599Z,9.32
2019-03-24T09:22:06.592Z,9.29
2019-03-24T09:23:06.592Z,9.39
2019-03-24T09:24:06.583Z,9.40
2019-03-24T09:25:06.572Z,9.58
2019-03-24T09:26:06.578Z,9.58
2019-03-24T09:27:06.567Z,9.56
2019-03-24T09:28:08.981Z,9.55
2019-03-24T09:29:06.603Z,9.56
2019-03-24T09:30:06.539Z,9.66
2019-03-24T09:31:06.534Z,9.66
2019-03-24T09:32:06.525Z,9.56
2019-03-24T09:33:06.517Z,9.59
2019-03-24T09:34:06.511Z,9.58
2019-03-24T09:35:06.515Z,9.48
2019-03-24T09:36:06.497Z,9.56
2019-03-24T09:37:06.491Z,9.61
2019-03-24T09:38:06.484Z,9.62
2019-03-24T09:39:06.476Z,9.62
2019-03-24T09:40:06.474Z,9.68
2019-03-24T09:41:06.461Z,9.69
2019-03-24T09:42:06.457Z,9.69
2019-03-24T09:43:06.451Z,9.68
2019-03-24T09:44:06.449Z,9.54
2019-03-24T09:45:06.437Z,9.66
2019-03-24T09:46:06.420Z,9.74
2019-03-24T09:47:06.421Z,9.91
2019-03-24T09:48:06.415Z,9.98
2019-03-24T09:49:06.407Z,10.05
2019-03-24T09:50:06.402Z,10.02
2019-03-24T09:51:06.448Z,9.94
2019-03-24T09:52:06.388Z,10.09
2019-03-24T09:53:06.390Z,10.09
2019-03-24T09:54:06.365Z,10.15
2019-03-24T09:55:06.369Z,10.02
2019-03-24T09:56:06.363Z,10.22
2019-03-24T09:57:06.354Z,10.28
2019-03-24T09:58:06.352Z,10.42
2019-03-24T09:59:06.342Z,10.23
2019-03-24T10:00:06.336Z,10.20
2019-03-24T10:01:06.344Z,10.07
2019-03-24T10:02:06.322Z,10.07
2019-03-24T10:03:06.316Z,10.13
2019-03-24T10:04:06.313Z,10.34
2019-03-24T10:05:06.328Z,10.48
2019-03-24T10:06:06.311Z,10.59
2019-03-24T10:07:06.289Z,10.71
2019-03-24T10:08:06.284Z,10.76
2019-03-24T10:09:06.276Z,10.75
2019-03-24T10:10:06.269Z,10.63
2019-03-24T10:11:06.265Z,10.64
2019-03-24T10:12:06.252Z,10.60
2019-03-24T10:13:06.253Z,10.64
2019-03-24T10:14:06.244Z,10.64
2019-03-24T10:15:06.241Z,10.74
2019-03-24T10:16:06.232Z,10.89
2019-03-24T10:17:06.230Z,10.90
2019-03-24T10:18:06.224Z,10.90
2019-03-24T10:19:14.055Z,10.99
2019-03-24T10:20:06.632Z,10.90
2019-03-24T10:21:06.217Z,10.93
2019-03-24T10:22:06.193Z,10.81
2019-03-24T10:23:06.184Z,10.63
2019-03-24T10:24:07.951Z,10.72
2019-03-24T10:25:06.172Z,10.71
2019-03-24T10:26:06.597Z,10.69
2019-03-24T10:27:06.161Z,10.74
2019-03-24T10:28:06.156Z,10.87
2019-03-24T10:29:06.148Z,10.90
2019-03-24T10:30:06.146Z,10.87
2019-03-24T10:31:06.140Z,10.87
2019-03-24T10:32:06.129Z,10.89
2019-03-24T10:33:06.125Z,10.94
2019-03-24T10:34:06.121Z,11.04
2019-03-24T10:35:06.114Z,11.10
2019-03-24T10:36:06.106Z,11.23
2019-03-24T10:37:06.102Z,11.27
2019-03-24T10:38:06.093Z,11.47
2019-03-24T10:39:06.088Z,11.45
2019-03-24T10:40:06.080Z,11.55
2019-03-24T10:41:06.102Z,11.60
2019-03-24T10:42:06.069Z,11.80
2019-03-24T10:43:06.061Z,11.80
2019-03-24T10:44:06.058Z,11.99
2019-03-24T10:45:06.097Z,11.88
2019-03-24T10:46:06.046Z,11.90
2019-03-24T10:47:06.091Z,11.88
2019-03-24T10:48:06.035Z,11.94
2019-03-24T10:49:06.029Z,12.00
2019-03-24T10:50:06.022Z,12.00
2019-03-24T10:51:06.018Z,11.87
2019-03-24T10:52:06.013Z,11.90
2019-03-24T10:53:06.004Z,11.86
2019-03-24T10:54:06.130Z,11.91
2019-03-24T10:55:05.995Z,11.84
2019-03-24T10:56:05.987Z,11.87
2019-03-24T10:57:05.983Z,11.99
2019-03-24T10:58:05.984Z,11.87
2019-03-24T10:59:05.972Z,12.04
2019-03-24T11:00:05.967Z,12.15
2019-03-24T11:01:06.092Z,12.31
2019-03-24T11:02:05.957Z,12.21
2019-03-24T11:03:05.951Z,12.17
2019-03-24T11:04:05.945Z,12.20
2019-03-24T11:05:06.086Z,12.10
2019-03-24T11:06:05.935Z,11.95
2019-03-24T11:07:05.928Z,11.97
2019-03-24T11:08:05.922Z,11.90
2019-03-24T11:09:05.917Z,11.91
2019-03-24T11:10:05.910Z,11.97
2019-03-24T11:11:06.088Z,12.09
2019-03-24T11:12:05.899Z,12.15
2019-03-24T11:13:05.919Z,11.95
2019-03-24T11:14:05.887Z,12.06
2019-03-24T11:15:06.093Z,12.15
2019-03-24T11:16:05.877Z,12.35
2019-03-24T11:17:06.100Z,12.39
2019-03-24T11:18:05.872Z,12.54
2019-03-24T11:19:05.861Z,12.67
2019-03-24T11:20:05.866Z,12.64
2019-03-24T11:21:05.854Z,12.79
2019-03-24T11:22:05.845Z,12.93
2019-03-24T11:23:06.124Z,12.90
2019-03-24T11:24:05.852Z,12.61
2019-03-24T11:25:05.822Z,12.06
2019-03-24T11:26:05.825Z,12.06
2019-03-24T11:27:05.824Z,12.36
2019-03-24T11:28:05.818Z,12.57
2019-03-24T11:29:05.816Z,12.49
2019-03-24T11:30:05.807Z,12.43
2019-03-24T11:31:05.796Z,12.53
2019-03-24T11:32:05.829Z,12.46
2019-03-24T11:33:05.790Z,12.39
2019-03-24T11:34:05.786Z,12.35
2019-03-24T11:35:05.784Z,12.37
2019-03-24T11:36:05.778Z,12.45
2019-03-24T11:37:05.769Z,12.25
2019-03-24T11:38:05.767Z,12.25
2019-03-24T11:39:06.097Z,12.29
2019-03-24T11:40:05.755Z,12.21
2019-03-24T11:41:05.750Z,12.10
2019-03-24T11:42:05.742Z,12.00
2019-03-24T11:43:05.742Z,12.06
2019-03-24T11:44:05.734Z,11.97
2019-03-24T11:45:05.731Z,11.80
2019-03-24T11:46:05.728Z,12.00
2019-03-24T11:47:05.724Z,11.95
2019-03-24T11:48:05.719Z,12.04
2019-03-24T11:49:05.708Z,12.06
2019-03-24T11:50:05.704Z,12.27
2019-03-24T11:51:05.703Z,12.32
2019-03-24T11:52:05.694Z,12.57
2019-03-24T11:53:05.690Z,12.60
2019-03-24T11:54:05.687Z,12.80
2019-03-24T11:55:05.682Z,13.00
2019-03-24T11:56:05.675Z,12.91
2019-03-24T11:57:05.669Z,12.80
2019-03-24T11:58:06.379Z,12.87
2019-03-24T11:59:05.665Z,12.65
2019-03-24T12:00:05.656Z,12.80
2019-03-24T12:01:05.656Z,12.95
2019-03-24T12:02:05.648Z,13.04
2019-03-24T12:03:05.641Z,13.12
2019-03-24T12:04:05.635Z,12.93
2019-03-24T12:05:05.628Z,12.82
2019-03-24T12:06:13.978Z,12.78
2019-03-24T12:07:05.620Z,12.82
2019-03-24T12:08:05.622Z,12.97
2019-03-24T12:09:05.617Z,12.93
2019-03-24T12:10:05.612Z,13.12
2019-03-24T12:11:05.600Z,13.28
2019-03-24T12:12:05.597Z,13.38
2019-03-24T12:13:05.591Z,13.49
2019-03-24T12:14:05.585Z,13.63
2019-03-24T12:15:05.625Z,13.57
2019-03-24T12:16:05.579Z,13.87
2019-03-24T12:17:05.603Z,13.95
2019-03-24T12:18:05.569Z,14.05
2019-03-24T12:19:05.564Z,14.15
2019-03-24T12:20:05.569Z,14.26
2019-03-24T12:21:05.592Z,14.35
2019-03-24T12:22:05.555Z,14.40
2019-03-24T12:23:05.548Z,14.48
2019-03-24T12:24:05.547Z,14.51
2019-03-24T12:25:05.597Z,14.47
2019-03-24T12:26:05.538Z,14.12
2019-03-24T12:27:05.533Z,14.08
2019-03-24T12:28:05.529Z,14.14
2019-03-24T12:29:05.594Z,13.90
2019-03-24T12:30:05.522Z,13.93
2019-03-24T12:31:05.528Z,13.96
2019-03-24T12:32:05.516Z,13.93
2019-03-24T12:33:05.515Z,14.12
2019-03-24T12:34:05.510Z,14.29
2019-03-24T12:35:05.502Z,14.20
2019-03-24T12:36:05.499Z,14.23
2019-03-24T12:37:05.497Z,14.22
2019-03-24T12:38:05.495Z,14.23
2019-03-24T12:39:05.489Z,14.11
2019-03-24T12:40:05.488Z,14.11
2019-03-24T12:41:05.483Z,14.07
2019-03-24T12:42:05.479Z,14.14
2019-03-24T12:43:05.477Z,14.23
2019-03-24T12:44:05.473Z,14.23
2019-03-24T12:45:05.584Z,14.23
2019-03-24T12:46:05.473Z,14.25
2019-03-24T12:47:05.463Z,14.25
2019-03-24T12:48:05.590Z,14.22
2019-03-24T12:49:05.461Z,14.26
2019-03-24T12:50:09.289Z,14.28
2019-03-24T12:51:05.448Z,14.40
2019-03-24T12:52:05.448Z,14.37
2019-03-24T12:53:05.443Z,14.25
2019-03-24T12:54:05.445Z,14.44
2019-03-24T12:55:05.434Z,14.45
2019-03-24T12:56:05.436Z,14.54
2019-03-24T12:57:05.429Z,14.70
2019-03-24T12:58:05.441Z,14.70
2019-03-24T12:59:05.424Z,14.70
2019-03-24T13:00:05.418Z,14.62
2019-03-24T13:01:05.419Z,14.68
2019-03-24T13:02:05.403Z,14.40
2019-03-24T13:03:05.433Z,14.07
2019-03-24T13:04:05.604Z,14.20
2019-03-24T13:05:05.402Z,14.22
2019-03-24T13:06:05.399Z,14.25
2019-03-24T13:07:05.400Z,14.22
2019-03-24T13:08:05.433Z,14.32
2019-03-24T13:09:05.390Z,14.35
2019-03-24T13:10:05.388Z,14.45
2019-03-24T13:11:05.386Z,14.41